Time;durP1;ratioP1;P1;durP2;ratioP2;P2;SDS_P1;SDS_P2;PMS_P1;PMS_P2;Temp;Humidity;BMP_temperature;BMP_pressure;BME280_temperature;BME280_humidity;BME280_pressure;Samples;Min_cycle;Max_cycle;Signal;HPM_P1;HPM_P2
2020/12/04 00:00:44;;;;;;;18.70;11.00;;;3.00;99.90;;;;;;5028841;28;20481;-76
2020/12/04 00:03:09;;;;;;;16.25;10.05;;;3.00;99.90;;;;;;5035430;28;20104;-75
2020/12/04 00:05:35;;;;;;;17.05;10.85;;;3.00;99.90;;;;;;5021788;28;20043;-76
2020/12/04 00:08:03;;;;;;;16.80;10.65;;;2.90;99.90;;;;;;5033603;28;20087;-77
2020/12/04 00:10:29;;;;;;;16.95;10.35;;;3.00;99.90;;;;;;5026933;28;20049;-76
2020/12/04 00:12:54;;;;;;;19.58;12.02;;;3.00;99.90;;;;;;5030795;28;20064;-75
2020/12/04 00:15:22;;;;;;;17.05;10.55;;;3.00;99.90;;;;;;5030792;28;20041;-76
2020/12/04 00:17:50;;;;;;;15.55;10.30;;;3.00;99.90;;;;;;5028836;28;20033;-75
2020/12/04 00:20:16;;;;;;;17.13;10.65;;;3.00;99.90;;;;;;5031378;28;20027;-76
2020/12/04 00:22:44;;;;;;;16.38;10.50;;;3.00;99.90;;;;;;5036644;28;20319;-76
2020/12/04 00:25:11;;;;;;;16.33;10.43;;;3.00;99.90;;;;;;5031479;28;20053;-76
2020/12/04 00:27:39;;;;;;;16.90;10.82;;;3.00;99.90;;;;;;5029206;28;20051;-75
2020/12/04 00:30:05;;;;;;;17.30;11.35;;;3.00;99.90;;;;;;5034159;28;20036;-76
2020/12/04 00:32:32;;;;;;;22.35;12.52;;;3.00;99.90;;;;;;5027404;28;20030;-76
2020/12/04 00:35:02;;;;;;;18.45;11.63;;;3.00;99.90;;;;;;5028534;28;20029;-76
2020/12/04 00:37:27;;;;;;;18.70;11.70;;;2.90;99.90;;;;;;5033444;28;20040;-76
2020/12/04 00:39:53;;;;;;;18.55;12.18;;;2.90;99.90;;;;;;5028679;28;20375;-76
2020/12/04 00:42:18;;;;;;;19.52;11.30;;;2.90;99.90;;;;;;5028645;28;20348;-75
2020/12/04 00:44:44;;;;;;;19.00;11.77;;;2.90;99.90;;;;;;5032793;28;21843;-75
2020/12/04 00:47:10;;;;;;;18.05;11.00;;;2.90;99.90;;;;;;5032385;28;20067;-76
2020/12/04 00:49:37;;;;;;;17.75;10.88;;;2.90;99.90;;;;;;5034862;28;20096;-75
2020/12/04 00:52:03;;;;;;;18.55;11.15;;;2.90;99.90;;;;;;5034556;28;20036;-76
2020/12/04 00:54:31;;;;;;;15.30;9.70;;;2.90;99.90;;;;;;5030496;28;20029;-75
2020/12/04 00:56:59;;;;;;;16.63;10.27;;;2.90;99.90;;;;;;5030979;28;20029;-76
2020/12/04 00:59:24;;;;;;;15.23;9.70;;;2.90;99.90;;;;;;5034151;28;20036;-75
2020/12/04 01:01:50;;;;;;;18.80;11.77;;;2.90;99.90;;;;;;5034360;28;20924;-75
2020/12/04 01:04:16;;;;;;;20.35;12.55;;;2.90;99.90;;;;;;5033310;28;20044;-75
2020/12/04 01:06:46;;;;;;;19.55;12.45;;;2.90;99.90;;;;;;5030785;28;20033;-76
2020/12/04 01:09:12;;;;;;;24.70;14.52;;;2.90;99.90;;;;;;5036867;28;20025;-76
2020/12/04 01:11:38;;;;;;;20.80;12.63;;;2.90;99.90;;;;;;5046155;28;20170;-75
2020/12/04 01:14:03;;;;;;;17.30;11.25;;;2.90;99.90;;;;;;5033034;28;20028;-75
2020/12/04 01:16:29;;;;;;;19.27;11.88;;;2.90;99.90;;;;;;5030431;28;20026;-75
2020/12/04 01:18:57;;;;;;;18.63;11.48;;;2.90;99.90;;;;;;5030749;28;20583;-75
2020/12/04 01:21:25;;;;;;;22.23;14.00;;;2.90;99.90;;;;;;5031776;28;20036;-75
2020/12/04 01:23:51;;;;;;;23.83;13.93;;;2.80;99.90;;;;;;5034263;28;20034;-75
2020/12/04 01:26:17;;;;;;;24.25;14.68;;;2.90;99.90;;;;;;5028169;28;20033;-75
2020/12/04 01:28:45;;;;;;;21.38;14.13;;;2.90;99.90;;;;;;5026299;28;20063;-75
2020/12/04 01:31:13;;;;;;;28.17;16.63;;;2.90;99.90;;;;;;5035766;28;20103;-75
2020/12/04 01:33:43;;;;;;;30.98;18.20;;;2.90;99.90;;;;;;5031141;28;20439;-75
2020/12/04 01:36:09;;;;;;;27.08;16.08;;;2.90;99.90;;;;;;5029307;28;20520;-75
2020/12/04 01:38:39;;;;;;;28.23;17.02;;;2.90;99.90;;;;;;5034689;28;20021;-75
2020/12/04 01:41:04;;;;;;;28.55;16.70;;;2.90;99.90;;;;;;5068580;28;20048;-75
2020/12/04 01:43:30;;;;;;;27.63;16.98;;;2.90;99.90;;;;;;5031464;28;20038;-74
2020/12/04 01:45:56;;;;;;;29.98;17.48;;;2.90;99.90;;;;;;5033879;28;20104;-75
2020/12/04 01:48:25;;;;;;;24.13;14.55;;;2.90;99.90;;;;;;5014509;28;20029;-75
2020/12/04 01:50:51;;;;;;;28.23;16.13;;;2.90;99.90;;;;;;5032202;28;20049;-75
2020/12/04 01:53:20;;;;;;;27.17;16.30;;;2.90;99.90;;;;;;5030679;28;20032;-75
2020/12/04 01:55:48;;;;;;;31.70;17.48;;;2.80;99.90;;;;;;5047382;28;20051;-75
2020/12/04 01:58:16;;;;;;;27.48;16.70;;;2.90;99.90;;;;;;5030782;28;20041;-75
2020/12/04 02:00:43;;;;;;;28.67;16.50;;;2.90;99.90;;;;;;5028550;28;20450;-75
2020/12/04 02:03:08;;;;;;;28.40;16.88;;;2.90;99.90;;;;;;5033576;28;20405;-74
2020/12/04 02:05:40;;;;;;;29.77;17.17;;;2.90;99.90;;;;;;5028187;28;20108;-75
2020/12/04 02:08:35;;;;;;;25.98;15.38;;;2.90;99.90;;;;;;5046610;28;20030;-75
2020/12/04 02:11:23;;;;;;;25.48;15.10;;;2.90;99.90;;;;;;5031324;28;20045;-75
2020/12/04 02:13:49;;;;;;;26.38;16.45;;;2.90;99.90;;;;;;5031474;28;20032;-75
2020/12/04 02:16:21;;;;;;;27.33;16.27;;;2.90;99.90;;;;;;5031967;28;20025;-74
2020/12/04 02:18:47;;;;;;;18.58;11.50;;;2.80;99.90;;;;;;5028182;28;20091;-74
2020/12/04 02:21:15;;;;;;;24.45;15.13;;;2.80;99.90;;;;;;5030855;28;20026;-74
2020/12/04 02:23:48;;;;;;;29.17;17.27;;;2.90;99.90;;;;;;5033533;28;20542;-75
2020/12/04 02:26:14;;;;;;;;;;;2.80;99.90;;;;;;5031209;28;20060;-74
2020/12/04 02:28:40;;;;;;;32.72;17.90;;;2.80;99.90;;;;;;5034169;28;19909;-74
2020/12/04 02:31:05;;;;;;;28.13;16.05;;;2.80;99.90;;;;;;5032904;28;20481;-74
2020/12/04 02:33:34;;;;;;;26.67;16.40;;;2.70;99.90;;;;;;5033075;28;20021;-74
2020/12/04 02:36:00;;;;;;;27.60;16.17;;;2.80;99.90;;;;;;5030780;28;20447;-75
2020/12/04 02:38:26;;;;;;;30.58;17.50;;;2.70;99.90;;;;;;5027181;28;20048;-74
2020/12/04 02:40:52;;;;;;;28.77;16.48;;;2.80;99.90;;;;;;5029943;28;20021;-74
2020/12/04 02:43:18;;;;;;;32.47;17.35;;;2.70;99.90;;;;;;5031742;28;20065;-74
2020/12/04 02:45:44;;;;;;;35.58;19.67;;;2.70;99.90;;;;;;5029120;28;20040;-74
2020/12/04 02:48:10;;;;;;;31.08;17.77;;;2.70;99.90;;;;;;5032734;28;20033;-75
2020/12/04 02:50:35;;;;;;;29.52;17.13;;;2.70;99.90;;;;;;5034363;28;20041;-74
2020/12/04 02:53:01;;;;;;;31.73;18.52;;;2.70;99.90;;;;;;5038667;28;20120;-74
2020/12/04 02:55:31;;;;;;;34.75;18.05;;;2.70;99.90;;;;;;5035183;28;20033;-74
2020/12/04 02:57:59;;;;;;;30.73;17.08;;;2.70;99.90;;;;;;5032912;28;20036;-74
2020/12/04 03:00:25;;;;;;;28.83;16.40;;;2.70;99.90;;;;;;5034380;28;20022;-75
2020/12/04 03:02:51;;;;;;;26.52;15.85;;;2.70;99.90;;;;;;5032428;28;20029;-74
2020/12/04 03:05:17;;;;;;;28.17;16.52;;;2.70;99.90;;;;;;5032459;28;20537;-75
2020/12/04 03:07:47;;;;;;;31.23;17.42;;;2.70;99.90;;;;;;5033806;28;20518;-74
2020/12/04 03:10:13;;;;;;;34.20;18.45;;;2.70;99.90;;;;;;5037761;28;20079;-74
2020/12/04 03:12:39;;;;;;;31.85;17.48;;;2.70;99.90;;;;;;5034490;28;20053;-74
2020/12/04 03:15:07;;;;;;;30.38;17.60;;;2.70;99.90;;;;;;5033783;28;20091;-74
2020/12/04 03:17:34;;;;;;;26.75;16.10;;;2.70;99.90;;;;;;5034772;28;20034;-74
2020/12/04 03:19:59;;;;;;;27.63;16.45;;;2.70;99.90;;;;;;5036321;28;20025;-74
2020/12/04 03:22:27;;;;;;;26.73;16.20;;;2.70;99.90;;;;;;5031621;28;20025;-74
2020/12/04 03:24:53;;;;;;;28.42;16.23;;;2.70;99.90;;;;;;5033127;28;20052;-74
2020/12/04 03:27:21;;;;;;;25.88;15.00;;;2.70;99.90;;;;;;5033604;28;20355;-74
2020/12/04 03:29:47;;;;;;;29.63;15.75;;;2.80;99.90;;;;;;5031946;28;20025;-74
2020/12/04 03:32:14;;;;;;;29.40;16.70;;;2.80;99.90;;;;;;5033804;28;20033;-74
2020/12/04 03:34:40;;;;;;;28.08;15.50;;;2.80;99.90;;;;;;5033806;28;20034;-74
2020/12/04 03:37:05;;;;;;;28.33;16.55;;;2.80;99.90;;;;;;5047140;28;20352;-74
2020/12/04 03:39:31;;;;;;;27.70;15.60;;;2.80;99.90;;;;;;5033266;28;20033;-74
2020/12/04 03:41:57;;;;;;;29.55;16.23;;;2.80;99.90;;;;;;5032626;28;20038;-74
2020/12/04 03:44:25;;;;;;;29.75;15.95;;;2.80;99.90;;;;;;5032930;28;20029;-74
2020/12/04 03:46:50;;;;;;;29.60;17.35;;;2.70;99.90;;;;;;5031086;28;20091;-74
2020/12/04 03:49:16;;;;;;;33.08;18.02;;;2.80;99.90;;;;;;5033263;28;20029;-74
2020/12/04 03:51:42;;;;;;;32.38;18.13;;;2.80;99.90;;;;;;5036455;28;20090;-74
2020/12/04 03:54:08;;;;;;;30.83;16.98;;;2.80;99.90;;;;;;5031001;28;20045;-74
2020/12/04 03:56:34;;;;;;;28.45;16.40;;;2.80;99.90;;;;;;5019609;28;20036;-74
2020/12/04 03:59:00;;;;;;;29.30;16.00;;;2.80;99.90;;;;;;5030954;28;20021;-73
2020/12/04 04:01:28;;;;;;;34.53;18.25;;;2.80;99.90;;;;;;5034926;28;20057;-74
2020/12/04 04:03:56;;;;;;;28.40;15.93;;;2.80;99.90;;;;;;5030616;28;20033;-73
2020/12/04 04:06:22;;;;;;;27.42;15.02;;;2.80;99.90;;;;;;5036636;28;20026;-73
2020/12/04 04:08:50;;;;;;;28.20;16.73;;;2.80;99.90;;;;;;5034863;28;20031;-73
2020/12/04 04:11:16;;;;;;;27.73;15.55;;;2.80;99.90;;;;;;5031539;28;21596;-73
2020/12/04 04:13:41;;;;;;;26.80;15.70;;;2.80;99.90;;;;;;5027132;28;20029;-73
2020/12/04 04:16:07;;;;;;;29.33;16.00;;;2.80;99.90;;;;;;5035974;28;20436;-73
2020/12/04 04:18:33;;;;;;;26.40;15.10;;;2.80;99.90;;;;;;5034908;28;20462;-73
2020/12/04 04:21:02;;;;;;;25.45;14.80;;;2.80;99.90;;;;;;5031706;28;20490;-73
2020/12/04 04:23:30;;;;;;;29.45;15.93;;;2.80;99.90;;;;;;5036947;28;20098;-73
2020/12/04 04:25:55;;;;;;;26.45;14.75;;;2.80;99.90;;;;;;5030014;28;20049;-73
2020/12/04 04:28:23;;;;;;;26.42;14.25;;;2.80;99.90;;;;;;5030987;28;20025;-73
2020/12/04 04:30:51;;;;;;;27.33;14.88;;;2.90;99.90;;;;;;5033775;28;20022;-73
2020/12/04 04:33:22;;;;;;;26.95;14.82;;;2.80;99.90;;;;;;5032502;28;20049;-73
2020/12/04 04:35:47;;;;;;;22.52;13.63;;;2.80;99.90;;;;;;5032644;28;20040;-74
2020/12/04 04:38:13;;;;;;;27.02;15.15;;;2.80;99.90;;;;;;5029782;28;20101;-74
2020/12/04 04:40:42;;;;;;;25.60;14.82;;;2.80;99.90;;;;;;5035767;28;20036;-74
2020/12/04 04:43:15;;;;;;;28.17;15.65;;;2.90;99.90;;;;;;5032995;28;20037;-74
2020/12/04 04:45:44;;;;;;;24.80;14.25;;;2.90;99.90;;;;;;5031930;28;20038;-73
2020/12/04 04:48:22;;;;;;;26.30;14.25;;;2.90;99.90;;;;;;5029762;28;20047;-73
2020/12/04 04:50:47;;;;;;;25.42;13.68;;;2.90;99.90;;;;;;5030263;28;20519;-74
2020/12/04 04:53:13;;;;;;;30.58;16.70;;;2.90;99.90;;;;;;5031898;28;20034;-74
2020/12/04 04:55:41;;;;;;;27.70;15.18;;;2.90;99.90;;;;;;5048770;28;20083;-74
2020/12/04 04:58:07;;;;;;;26.08;14.43;;;2.90;99.90;;;;;;5035264;28;20033;-74
2020/12/04 05:00:35;;;;;;;26.30;15.13;;;2.90;99.90;;;;;;5035136;28;20029;-74
2020/12/04 05:03:03;;;;;;;23.65;14.07;;;2.90;99.90;;;;;;5034347;28;20036;-74
2020/12/04 05:05:48;;;;;;;26.10;15.20;;;2.90;99.90;;;;;;5029851;28;20140;-74
2020/12/04 05:08:24;;;;;;;25.88;14.32;;;2.90;99.90;;;;;;5035826;28;20025;-74
2020/12/04 05:10:52;;;;;;;30.30;16.05;;;2.90;99.90;;;;;;5031740;28;20460;-74
2020/12/04 05:13:20;;;;;;;23.13;14.07;;;2.90;99.90;;;;;;5018076;28;20477;-74
2020/12/04 05:15:51;;;;;;;27.40;14.00;;;2.90;99.90;;;;;;5029594;28;20029;-74
2020/12/04 05:18:19;;;;;;;24.95;13.90;;;2.90;99.90;;;;;;5029403;28;20482;-74
2020/12/04 05:20:57;;;;;;;26.52;14.95;;;2.90;99.90;;;;;;5030880;28;20045;-74
2020/12/04 05:23:23;;;;;;;23.73;13.57;;;2.90;99.90;;;;;;5029839;28;20026;-74
2020/12/04 05:25:50;;;;;;;21.65;12.27;;;2.90;99.90;;;;;;5033904;28;20060;-74
2020/12/04 05:28:25;;;;;;;24.13;12.98;;;2.90;99.90;;;;;;5034023;28;20037;-74
2020/12/04 05:31:06;;;;;;;25.77;14.57;;;2.90;99.90;;;;;;5032729;28;20032;-74
2020/12/04 05:33:36;;;;;;;26.65;14.45;;;2.80;99.90;;;;;;5016676;28;20557;-74
2020/12/04 05:36:03;;;;;;;21.17;12.15;;;2.90;99.90;;;;;;5032360;28;20374;-74
2020/12/04 05:38:31;;;;;;;22.20;12.70;;;2.80;99.90;;;;;;5032889;28;20113;-74
2020/12/04 05:41:05;;;;;;;22.88;12.38;;;2.80;99.90;;;;;;5030583;28;20052;-75
2020/12/04 05:43:31;;;;;;;21.45;12.55;;;2.80;99.90;;;;;;5015107;28;20586;-74
2020/12/04 05:46:19;;;;;;;22.33;12.43;;;2.80;99.90;;;;;;5038255;28;20029;-74
2020/12/04 05:48:56;;;;;;;21.75;12.40;;;2.90;99.90;;;;;;5044644;28;20029;-74
2020/12/04 05:51:26;;;;;;;22.75;13.02;;;2.90;99.90;;;;;;5034372;28;20030;-74
2020/12/04 05:53:53;;;;;;;26.23;13.95;;;2.90;99.90;;;;;;5052147;28;20032;-75
2020/12/04 05:56:19;;;;;;;36.90;18.65;;;2.90;99.90;;;;;;5025906;28;21782;-75
2020/12/04 05:58:46;;;;;;;35.47;19.15;;;2.90;99.90;;;;;;5034600;28;20085;-74
2020/12/04 06:01:14;;;;;;;29.30;15.35;;;2.90;99.90;;;;;;5031922;28;20093;-75
2020/12/04 06:03:40;;;;;;;21.95;12.30;;;2.90;99.90;;;;;;5045128;28;20116;-75
2020/12/04 06:06:07;;;;;;;21.83;11.77;;;2.90;99.90;;;;;;5031298;28;20090;-75
2020/12/04 06:08:37;;;;;;;20.90;12.57;;;2.90;99.90;;;;;;5048825;28;20017;-76
2020/12/04 06:11:03;;;;;;;22.33;12.30;;;2.90;99.90;;;;;;5029821;28;20331;-76
2020/12/04 06:13:37;;;;;;;23.98;12.07;;;2.90;99.90;;;;;;5023012;28;20070;-75
2020/12/04 06:16:13;;;;;;;24.10;12.75;;;2.90;99.90;;;;;;5032178;28;20030;-76
2020/12/04 06:18:42;;;;;;;19.73;10.82;;;2.90;99.90;;;;;;5013257;28;20025;-76
2020/12/04 06:21:08;;;;;;;18.90;10.77;;;2.90;99.90;;;;;;5031371;28;20053;-76
2020/12/04 06:23:33;;;;;;;25.27;12.13;;;2.90;99.90;;;;;;5030700;28;20076;-75
2020/12/04 06:26:01;;;;;;;20.00;10.55;;;2.90;99.90;;;;;;5030939;28;20053;-75
2020/12/04 06:28:28;;;;;;;20.73;11.05;;;2.80;99.90;;;;;;5034381;28;20097;-74
2020/12/04 06:31:08;;;;;;;18.88;10.02;;;2.90;99.90;;;;;;5035714;28;20017;-74
2020/12/04 06:33:47;;;;;;;16.67;9.63;;;2.90;99.90;;;;;;5031835;28;20112;-74
2020/12/04 06:36:33;;;;;;;19.33;9.73;;;2.90;99.90;;;;;;5035813;28;20574;-75
2020/12/04 06:39:03;;;;;;;20.50;11.32;;;2.90;99.90;;;;;;5037373;28;20028;-74
2020/12/04 06:41:45;;;;;;;20.33;11.00;;;2.90;99.90;;;;;;5037330;28;20040;-74
2020/12/04 06:44:17;;;;;;;14.25;7.63;;;2.90;99.90;;;;;;5039771;28;20018;-74
2020/12/04 06:46:46;;;;;;;17.20;9.63;;;2.80;99.90;;;;;;5035290;28;20491;-73
2020/12/04 06:49:22;;;;;;;19.42;10.13;;;2.90;99.90;;;;;;5038609;28;20028;-74
2020/12/04 06:51:55;;;;;;;18.58;10.25;;;2.90;99.90;;;;;;5033655;28;20075;-74
2020/12/04 06:54:21;;;;;;;18.15;10.60;;;2.90;99.90;;;;;;5032622;28;20033;-74
2020/12/04 06:56:49;;;;;;;21.08;11.55;;;2.90;99.90;;;;;;5035925;28;20078;-74
2020/12/04 06:59:23;;;;;;;18.17;9.95;;;2.90;99.90;;;;;;5031105;28;20059;-74
2020/12/04 07:01:51;;;;;;;21.58;10.90;;;2.90;99.90;;;;;;5035698;28;20128;-74
2020/12/04 07:04:17;;;;;;;18.10;10.13;;;2.90;99.90;;;;;;5037470;28;20022;-74
2020/12/04 07:06:42;;;;;;;15.27;9.43;;;2.90;99.90;;;;;;5035620;28;20037;-74
2020/12/04 07:09:08;;;;;;;17.42;9.82;;;2.90;99.90;;;;;;5019648;28;20411;-74
2020/12/04 07:11:37;;;;;;;22.38;11.13;;;2.90;99.90;;;;;;5033785;28;20014;-74
2020/12/04 07:14:15;;;;;;;16.75;9.35;;;3.00;99.90;;;;;;5034012;28;20510;-74
2020/12/04 07:16:41;;;;;;;17.13;9.15;;;2.90;99.90;;;;;;5020286;28;20985;-75
2020/12/04 07:19:09;;;;;;;16.08;9.07;;;3.00;99.90;;;;;;5020742;28;20108;-74
2020/12/04 07:21:38;;;;;;;15.85;8.48;;;3.00;99.90;;;;;;5035478;28;20025;-75
2020/12/04 07:24:03;;;;;;;16.80;8.70;;;3.00;99.90;;;;;;5028318;28;20029;-74
2020/12/04 07:26:34;;;;;;;16.88;8.85;;;3.00;99.90;;;;;;5032777;28;20121;-75
2020/12/04 07:29:02;;;;;;;19.67;9.55;;;3.00;99.90;;;;;;5035795;28;20053;-75
2020/12/04 07:31:28;;;;;;;16.33;8.90;;;3.00;99.90;;;;;;5027025;28;20021;-75
2020/12/04 07:33:58;;;;;;;19.67;9.70;;;3.00;99.90;;;;;;5037823;28;20116;-75
2020/12/04 07:36:27;;;;;;;17.02;9.32;;;3.00;99.90;;;;;;5031230;28;20537;-75
2020/12/04 07:38:59;;;;;;;16.58;9.27;;;3.00;99.90;;;;;;5029749;28;20025;-75
2020/12/04 07:41:26;;;;;;;51.33;28.27;;;3.00;99.90;;;;;;5028995;28;20370;-75
2020/12/04 07:44:05;;;;;;;22.73;12.68;;;3.00;99.90;;;;;;5032503;28;20567;-75
2020/12/04 07:46:32;;;;;;;17.45;9.23;;;3.00;99.90;;;;;;5029452;28;20052;-75
2020/12/04 07:49:05;;;;;;;16.83;9.55;;;3.00;99.90;;;;;;5031530;28;20026;-75
2020/12/04 07:51:36;;;;;;;16.92;8.45;;;3.00;99.90;;;;;;5030268;28;20049;-77
2020/12/04 07:54:08;;;;;;;15.80;8.95;;;3.00;99.90;;;;;;5026738;28;20079;-74
2020/12/04 07:56:35;;;;;;;20.13;9.88;;;3.00;99.90;;;;;;5031062;28;20090;-74
2020/12/04 07:59:03;;;;;;;18.67;9.30;;;3.00;99.90;;;;;;5054833;28;20063;-74
2020/12/04 08:01:32;;;;;;;14.98;8.30;;;3.00;99.90;;;;;;5030682;28;20395;-74
2020/12/04 08:03:58;;;;;;;16.63;9.13;;;3.00;99.90;;;;;;5029735;28;20128;-75
2020/12/04 08:06:36;;;;;;;16.27;9.30;;;3.00;99.90;;;;;;5029213;28;20112;-74
2020/12/04 08:09:13;;;;;;;17.48;9.65;;;3.00;99.90;;;;;;5018293;28;20025;-91
2020/12/04 08:11:58;;;;;;;17.05;9.07;;;3.00;99.90;;;;;;5032595;28;20021;-85
2020/12/04 08:14:28;;;;;;;17.35;8.88;;;3.00;99.90;;;;;;5031503;28;20030;-74
2020/12/04 08:16:55;;;;;;;17.27;8.40;;;3.00;99.90;;;;;;5032142;28;20135;-74
2020/12/04 08:19:26;;;;;;;20.98;9.30;;;3.00;99.90;;;;;;5033529;28;20110;-75
2020/12/04 08:21:59;;;;;;;18.67;9.50;;;3.00;99.90;;;;;;5039981;28;20576;-74
2020/12/04 08:24:38;;;;;;;19.30;9.50;;;3.00;99.90;;;;;;5031147;28;20044;-74
2020/12/04 08:27:08;;;;;;;18.38;9.27;;;3.00;99.90;;;;;;5034292;28;20046;-75
2020/12/04 08:29:38;;;;;;;17.48;8.52;;;3.00;99.90;;;;;;5037419;28;20030;-75
2020/12/04 08:32:19;;;;;;;16.17;8.45;;;3.00;99.90;;;;;;5064029;28;20030;-75
2020/12/04 08:34:45;;;;;;;16.85;8.65;;;3.00;99.90;;;;;;5043911;28;20489;-74
2020/12/04 08:37:11;;;;;;;14.45;7.60;;;3.00;99.90;;;;;;5032699;28;20037;-75
2020/12/04 08:39:38;;;;;;;14.07;8.15;;;3.00;99.90;;;;;;5033231;28;20041;-75
2020/12/04 08:42:21;;;;;;;15.60;8.85;;;3.00;99.90;;;;;;5030636;28;20017;-75
2020/12/04 08:45:09;;;;;;;12.52;7.35;;;3.10;99.90;;;;;;5031534;28;20037;-74
2020/12/04 08:47:40;;;;;;;16.45;8.35;;;3.10;99.90;;;;;;5036160;28;20585;-75
2020/12/04 08:50:14;;;;;;;15.45;7.82;;;3.10;99.90;;;;;;5023305;28;20021;-75
2020/12/04 08:52:55;;;;;;;14.10;7.88;;;3.10;99.90;;;;;;5033867;28;20104;-75
2020/12/04 08:55:26;;;;;;;13.95;7.50;;;3.10;99.90;;;;;;5031589;28;20069;-75
2020/12/04 08:57:54;;;;;;;18.08;8.90;;;3.10;99.90;;;;;;5030566;28;20068;-75
2020/12/04 09:00:21;;;;;;;15.65;8.05;;;3.10;99.90;;;;;;5031095;28;20089;-74
2020/12/04 09:02:47;;;;;;;19.25;9.35;;;3.10;99.90;;;;;;5036979;28;20036;-75
2020/12/04 09:05:16;;;;;;;18.27;8.45;;;3.10;99.90;;;;;;5033898;28;20029;-75
2020/12/04 09:07:44;;;;;;;13.40;7.30;;;3.10;99.90;;;;;;5032462;28;20033;-74
2020/12/04 09:10:12;;;;;;;14.05;7.63;;;3.20;99.90;;;;;;5036678;28;20025;-74
2020/12/04 09:12:37;;;;;;;15.27;7.65;;;3.20;99.90;;;;;;5032737;28;20108;-74
2020/12/04 09:15:07;;;;;;;15.65;8.35;;;3.20;99.90;;;;;;5032150;28;20659;-74
2020/12/04 09:17:32;;;;;;;16.95;8.00;;;3.20;99.90;;;;;;5032252;28;20041;-75
2020/12/04 09:19:58;;;;;;;18.27;8.52;;;3.20;99.90;;;;;;5031546;28;20033;-74
2020/12/04 09:22:24;;;;;;;13.60;7.43;;;3.20;99.90;;;;;;5038491;28;20568;-74
2020/12/04 09:24:52;;;;;;;17.75;7.85;;;3.20;99.90;;;;;;5032481;28;20473;-74
2020/12/04 09:27:20;;;;;;;17.38;7.80;;;3.20;99.90;;;;;;5033768;28;20032;-75
2020/12/04 09:29:46;;;;;;;14.25;7.20;;;3.20;99.90;;;;;;5033792;28;20088;-74
2020/12/04 09:32:18;;;;;;;13.55;7.05;;;3.20;99.90;;;;;;5030855;28;20443;-74
2020/12/04 09:34:47;;;;;;;12.98;7.25;;;3.30;99.90;;;;;;5031797;28;20031;-74
2020/12/04 09:37:20;;;;;;;14.95;7.53;;;3.30;99.90;;;;;;5013283;28;20462;-74
2020/12/04 09:39:50;;;;;;;13.95;7.50;;;3.30;99.90;;;;;;5029598;28;20049;-74
2020/12/04 09:42:18;;;;;;;13.25;7.20;;;3.30;99.90;;;;;;5031739;28;20402;-74
2020/12/04 09:44:44;;;;;;;12.18;6.80;;;3.40;99.90;;;;;;5029452;28;20100;-74
2020/12/04 09:47:10;;;;;;;12.85;6.97;;;3.40;99.90;;;;;;5035250;28;20038;-74
2020/12/04 09:49:36;;;;;;;12.52;6.20;;;3.40;99.90;;;;;;5035235;28;20083;-74
2020/12/04 09:52:02;;;;;;;10.77;6.30;;;3.40;99.90;;;;;;5031598;28;20075;-74
2020/12/04 09:54:31;;;;;;;10.40;5.93;;;3.50;99.90;;;;;;5033119;28;20034;-74
2020/12/04 09:56:57;;;;;;;11.88;6.55;;;3.50;99.90;;;;;;5034947;28;20029;-74
2020/12/04 09:59:23;;;;;;;12.60;6.18;;;3.50;99.90;;;;;;5036661;28;20033;-74
2020/12/04 10:01:49;;;;;;;12.02;5.93;;;3.50;99.90;;;;;;5028883;28;20055;-74
2020/12/04 10:04:20;;;;;;;12.15;6.43;;;3.60;99.90;;;;;;5028903;28;20029;-74
2020/12/04 10:06:46;;;;;;;11.07;5.72;;;3.60;99.90;;;;;;5029468;28;20029;-74
2020/12/04 10:09:12;;;;;;;12.18;6.15;;;3.60;99.90;;;;;;5031414;28;20033;-74
2020/12/04 10:11:40;;;;;;;10.48;5.53;;;3.60;99.90;;;;;;5031854;28;20013;-74
2020/12/04 10:14:08;;;;;;;10.88;5.78;;;3.60;99.90;;;;;;5031103;28;20489;-74
2020/12/04 10:16:34;;;;;;;11.93;5.82;;;3.60;99.90;;;;;;5030620;28;20041;-74
2020/12/04 10:19:00;;;;;;;10.10;5.53;;;3.60;99.90;;;;;;5031485;28;20034;-74
2020/12/04 10:21:26;;;;;;;11.73;6.28;;;3.70;99.90;;;;;;5033861;28;20769;-74
2020/12/04 10:23:54;;;;;;;9.73;5.30;;;3.70;99.90;;;;;;5029780;28;20085;-74
2020/12/04 10:26:20;;;;;;;9.50;5.50;;;3.70;99.90;;;;;;5028268;28;20371;-74
2020/12/04 10:28:46;;;;;;;11.68;6.25;;;3.80;99.90;;;;;;5029218;28;20110;-74
2020/12/04 10:31:11;;;;;;;11.38;5.25;;;3.80;99.90;;;;;;5031797;28;20850;-74
2020/12/04 10:33:37;;;;;;;9.63;5.32;;;3.80;99.90;;;;;;5029875;28;20123;-74
2020/12/04 10:36:05;;;;;;;9.32;5.30;;;3.80;99.90;;;;;;5022404;28;20033;-74
2020/12/04 10:38:31;;;;;;;11.18;5.88;;;3.90;99.90;;;;;;5030349;28;20546;-74
2020/12/04 10:40:58;;;;;;;11.05;6.10;;;3.90;99.90;;;;;;5025118;28;20168;-74
2020/12/04 10:43:25;;;;;;;13.85;7.15;;;3.90;99.90;;;;;;5032170;28;20056;-74
2020/12/04 10:45:51;;;;;;;10.18;5.80;;;3.90;99.90;;;;;;5028250;28;20034;-74
2020/12/04 10:48:16;;;;;;;10.07;5.72;;;4.00;99.90;;;;;;5030737;28;20036;-74
2020/12/04 10:50:44;;;;;;;9.30;5.10;;;4.00;99.90;;;;;;5028711;28;20026;-74
2020/12/04 10:53:09;;;;;;;10.55;5.85;;;4.00;99.90;;;;;;5032797;28;20502;-75
2020/12/04 10:55:35;;;;;;;9.73;4.95;;;4.10;99.90;;;;;;5013034;28;20175;-74
2020/12/04 10:58:04;;;;;;;8.68;5.13;;;4.00;99.90;;;;;;5027137;28;20596;-74
2020/12/04 11:00:30;;;;;;;9.68;5.15;;;4.10;99.90;;;;;;5013244;28;20147;-74
2020/12/04 11:03:15;;;;;;;8.88;5.07;;;4.10;99.90;;;;;;5026450;28;20116;-74
2020/12/04 11:05:43;;;;;;;8.65;4.63;;;4.10;99.90;;;;;;5031961;28;20045;-74
2020/12/04 11:08:09;;;;;;;11.30;5.80;;;4.20;99.90;;;;;;5027799;28;20108;-74
2020/12/04 11:10:38;;;;;;;7.88;4.68;;;4.10;99.90;;;;;;5013230;28;20045;-74
2020/12/04 11:13:12;;;;;;;11.45;5.88;;;4.20;99.90;;;;;;5014916;28;20087;-74
2020/12/04 11:15:38;;;;;;;11.55;5.72;;;4.10;99.90;;;;;;5029092;28;20037;-77
2020/12/04 11:18:06;;;;;;;15.52;6.05;;;4.10;99.90;;;;;;5031795;28;20021;-74
2020/12/04 11:20:32;;;;;;;11.20;6.20;;;4.10;99.90;;;;;;5035158;28;20033;-74
2020/12/04 11:22:57;;;;;;;11.95;6.28;;;4.20;99.90;;;;;;5034479;28;20018;-74
2020/12/04 11:25:23;;;;;;;11.40;5.95;;;4.10;99.90;;;;;;5032055;28;20038;-72
2020/12/04 11:27:49;;;;;;;12.30;6.35;;;4.20;99.90;;;;;;5014901;28;20085;-71
2020/12/04 11:30:16;;;;;;;13.25;6.22;;;4.10;99.90;;;;;;5039705;28;20029;-70
2020/12/04 11:32:45;;;;;;;11.07;5.53;;;4.20;99.90;;;;;;5032363;28;20036;-70
2020/12/04 11:35:16;;;;;;;10.27;5.80;;;4.20;99.90;;;;;;5038353;28;20060;-70
2020/12/04 11:37:48;;;;;;;12.40;6.28;;;4.20;99.90;;;;;;5032788;28;20037;-70
2020/12/04 11:40:15;;;;;;;9.30;5.00;;;4.20;99.90;;;;;;5031301;28;20090;-70
2020/12/04 11:42:42;;;;;;;11.73;6.43;;;4.20;99.90;;;;;;5037165;28;20410;-70
2020/12/04 11:45:14;;;;;;;11.15;5.50;;;4.20;99.90;;;;;;5033859;28;20088;-70
2020/12/04 11:47:40;;;;;;;;;;;4.20;99.90;;;;;;5034701;28;20061;-70
2020/12/04 11:50:14;;;;;;;12.65;5.95;;;4.20;99.90;;;;;;5033946;28;19952;-70
2020/12/04 11:52:42;;;;;;;9.43;5.47;;;4.20;99.90;;;;;;5030264;28;20022;-70
2020/12/04 11:55:08;;;;;;;9.70;5.50;;;4.20;99.90;;;;;;5022452;28;20029;-70
2020/12/04 11:57:34;;;;;;;10.82;5.40;;;4.20;99.90;;;;;;5033296;28;20328;-70
2020/12/04 12:00:00;;;;;;;11.20;5.32;;;4.10;99.90;;;;;;5037096;28;20037;-70
2020/12/04 12:02:26;;;;;;;13.52;6.03;;;4.20;99.90;;;;;;5031586;28;20029;-70
2020/12/04 12:04:52;;;;;;;12.40;5.97;;;4.20;99.90;;;;;;5031879;28;20025;-70
2020/12/04 12:07:20;;;;;;;11.55;5.80;;;4.20;99.90;;;;;;5031403;28;20033;-69
2020/12/04 12:09:47;;;;;;;10.82;5.57;;;4.20;99.90;;;;;;5034991;28;20025;-70
2020/12/04 12:12:15;;;;;;;16.17;7.15;;;4.20;99.90;;;;;;5032215;28;20022;-70
2020/12/04 12:14:41;;;;;;;12.63;6.07;;;4.20;99.90;;;;;;5034832;28;20124;-70
2020/12/04 12:17:09;;;;;;;13.10;6.32;;;4.20;99.90;;;;;;5032204;28;20112;-70
2020/12/04 12:19:35;;;;;;;12.75;7.03;;;4.20;99.90;;;;;;5033505;28;20506;-70
2020/12/04 12:22:04;;;;;;;10.68;6.00;;;4.20;99.90;;;;;;5032708;28;20135;-69
2020/12/04 12:24:30;;;;;;;12.88;6.20;;;4.20;99.90;;;;;;5026833;28;20116;-70
2020/12/04 12:26:55;;;;;;;9.80;6.55;;;4.20;99.90;;;;;;5030695;28;20155;-69
2020/12/04 12:29:21;;;;;;;10.10;6.22;;;4.20;99.90;;;;;;5031634;28;20033;-70
2020/12/04 12:31:47;;;;;;;12.70;6.55;;;4.30;99.90;;;;;;5033566;28;20026;-69
2020/12/04 12:34:17;;;;;;;14.43;6.88;;;4.20;99.90;;;;;;5030823;28;20030;-70
2020/12/04 12:36:45;;;;;;;13.15;6.57;;;4.30;99.90;;;;;;5031485;28;20125;-70
2020/12/04 12:39:13;;;;;;;11.27;6.30;;;4.30;99.90;;;;;;5036737;28;20120;-69
2020/12/04 12:41:39;;;;;;;13.50;6.43;;;4.30;99.90;;;;;;5032083;28;20120;-69
2020/12/04 12:44:06;;;;;;;11.82;6.40;;;4.30;99.90;;;;;;5032439;28;20101;-69
2020/12/04 12:46:32;;;;;;;12.63;6.90;;;4.40;99.90;;;;;;5031816;28;20040;-69
2020/12/04 12:49:00;;;;;;;11.48;6.00;;;4.50;99.90;;;;;;5030177;28;20029;-69